Time;durP1;ratioP1;P1;durP2;ratioP2;P2;SDS_P1;SDS_P2;PMS_P1;PMS_P2;Temp;Humidity;BMP_temperature;BMP_pressure;BME280_temperature;BME280_humidity;BME280_pressure;Samples;Min_cycle;Max_cycle;Signal;HPM_P1;HPM_P2
2023/09/24 00:01:05;;;;;;;3.93;3.53;;;13.10;99.90;;;;;;5046567;28;20421;-72
2023/09/24 00:03:32;;;;;;;3.60;3.23;;;13.10;99.90;;;;;;5049162;28;20453;-73
2023/09/24 00:06:03;;;;;;;3.73;3.33;;;13.00;99.90;;;;;;5052468;28;20425;-73
2023/09/24 00:08:29;;;;;;;4.47;3.60;;;13.00;99.90;;;;;;5053187;28;20448;-73
2023/09/24 00:10:56;;;;;;;4.37;3.97;;;13.00;99.90;;;;;;5044961;28;20437;-73
2023/09/24 00:13:22;;;;;;;3.67;3.37;;;13.00;99.90;;;;;;5054813;28;20930;-73
2023/09/24 00:15:51;;;;;;;4.50;3.20;;;12.90;99.90;;;;;;5046851;28;20430;-73
2023/09/24 00:18:18;;;;;;;3.87;3.20;;;12.90;99.90;;;;;;5047017;28;20448;-73
2023/09/24 00:20:44;;;;;;;3.03;2.73;;;12.80;99.90;;;;;;5047967;28;20774;-73
2023/09/24 00:23:16;;;;;;;4.50;3.93;;;12.90;99.90;;;;;;5052863;28;20947;-73
2023/09/24 00:25:44;;;;;;;3.60;3.30;;;12.90;99.90;;;;;;5048241;28;20254;-73
2023/09/24 00:28:10;;;;;;;4.90;3.33;;;12.80;99.90;;;;;;5054211;28;20425;-73
2023/09/24 00:30:36;;;;;;;3.30;3.10;;;12.70;99.90;;;;;;5053589;28;20769;-73
2023/09/24 00:33:03;;;;;;;10.40;4.00;;;12.80;99.90;;;;;;5054305;28;20484;-73
2023/09/24 00:35:30;;;;;;;7.90;3.73;;;12.70;99.90;;;;;;5051866;28;20796;-72
2023/09/24 00:37:56;;;;;;;4.50;3.90;;;12.70;99.90;;;;;;5046222;28;20460;-73
2023/09/24 00:40:22;;;;;;;4.27;3.73;;;12.70;99.90;;;;;;5047211;28;20457;-72
2023/09/24 00:42:50;;;;;;;5.23;4.70;;;12.70;99.90;;;;;;5049689;28;20191;-73
2023/09/24 00:45:15;;;;;;;4.20;3.80;;;12.60;99.90;;;;;;5048252;28;20433;-72
2023/09/24 00:47:46;;;;;;;7.77;3.53;;;12.60;99.90;;;;;;5054202;28;20428;-72
2023/09/24 00:50:13;;;;;;;4.63;4.23;;;12.70;99.90;;;;;;5054494;28;20763;-73
2023/09/24 00:52:41;;;;;;;3.77;3.43;;;12.60;99.90;;;;;;5054157;28;20449;-72
2023/09/24 00:55:08;;;;;;;4.90;4.30;;;12.60;99.90;;;;;;5046491;28;20906;-73
2023/09/24 00:57:35;;;;;;;4.77;4.37;;;12.70;99.90;;;;;;5053660;28;20490;-72
2023/09/24 01:00:11;;;;;;;5.67;4.40;;;12.70;99.90;;;;;;5050700;28;20429;-74
2023/09/24 01:02:40;;;;;;;4.80;3.13;;;12.70;99.90;;;;;;5053410;28;20520;-71
2023/09/24 01:05:10;;;;;;;5.30;3.70;;;12.60;99.90;;;;;;5046969;28;20472;-73
2023/09/24 01:07:37;;;;;;;5.03;3.70;;;12.60;99.90;;;;;;5053481;28;20965;-72
2023/09/24 01:10:04;;;;;;;3.97;3.67;;;12.60;99.90;;;;;;5050034;28;20415;-72
2023/09/24 01:12:30;;;;;;;4.03;3.63;;;12.60;99.90;;;;;;5047710;28;20971;-71
2023/09/24 01:14:57;;;;;;;4.70;3.83;;;12.60;99.90;;;;;;5044893;28;20438;-71
2023/09/24 01:17:24;;;;;;;4.60;4.20;;;12.60;99.90;;;;;;5037610;28;20199;-72
2023/09/24 01:19:55;;;;;;;4.83;3.73;;;12.70;99.90;;;;;;5053530;28;20623;-75
2023/09/24 01:22:21;;;;;;;5.80;3.80;;;12.60;99.90;;;;;;5053009;28;20455;-72
2023/09/24 01:24:47;;;;;;;5.07;3.87;;;12.60;99.90;;;;;;5047069;28;20418;-72
2023/09/24 01:27:13;;;;;;;5.07;4.10;;;12.60;99.90;;;;;;5049864;28;20446;-72
2023/09/24 01:29:39;;;;;;;4.70;4.10;;;12.70;99.90;;;;;;5039391;28;20417;-72
2023/09/24 01:32:06;;;;;;;4.13;3.77;;;12.70;99.90;;;;;;5052889;28;20413;-72
2023/09/24 01:34:34;;;;;;;4.67;4.27;;;12.60;99.90;;;;;;5044851;28;20537;-72
2023/09/24 01:37:05;;;;;;;5.53;4.00;;;12.70;99.90;;;;;;5052942;28;20469;-72
2023/09/24 01:39:32;;;;;;;4.20;3.80;;;12.70;99.90;;;;;;5052996;28;20421;-73
2023/09/24 01:41:58;;;;;;;4.17;3.73;;;12.70;99.90;;;;;;5043983;28;20514;-72
2023/09/24 01:44:24;;;;;;;4.73;4.33;;;12.60;99.90;;;;;;5052740;28;20465;-73
2023/09/24 01:46:50;;;;;;;4.40;4.00;;;12.50;99.90;;;;;;5050975;28;20197;-73
2023/09/24 01:49:17;;;;;;;5.93;4.00;;;12.50;99.90;;;;;;5047216;28;20418;-73
2023/09/24 01:51:46;;;;;;;3.70;3.40;;;12.50;99.90;;;;;;5053047;28;20518;-73
2023/09/24 01:54:12;;;;;;;4.00;3.70;;;12.50;99.90;;;;;;5052651;28;20417;-73
2023/09/24 01:56:38;;;;;;;6.83;5.10;;;12.50;99.90;;;;;;5044314;28;20788;-72
2023/09/24 01:59:05;;;;;;;5.37;4.60;;;12.60;99.90;;;;;;5052845;28;20517;-74
2023/09/24 02:01:31;;;;;;;5.70;3.63;;;12.60;99.90;;;;;;5046736;28;20199;-72
2023/09/24 02:03:59;;;;;;;4.77;3.40;;;12.60;99.90;;;;;;5050260;28;20499;-73
2023/09/24 02:06:25;;;;;;;4.17;3.77;;;12.60;99.90;;;;;;5045800;28;20982;-72
2023/09/24 02:08:51;;;;;;;4.10;3.80;;;12.50;99.90;;;;;;5052434;28;20566;-73
2023/09/24 02:11:18;;;;;;;3.43;3.20;;;12.60;99.90;;;;;;5047740;28;20447;-72
2023/09/24 02:13:43;;;;;;;6.00;3.87;;;12.50;99.90;;;;;;5044208;28;20413;-73
2023/09/24 02:16:09;;;;;;;4.80;3.40;;;12.40;99.90;;;;;;5045474;28;20463;-73
2023/09/24 02:18:36;;;;;;;4.63;4.23;;;12.40;99.90;;;;;;5052175;28;20213;-73
2023/09/24 02:21:02;;;;;;;7.17;4.03;;;12.40;99.90;;;;;;5049983;28;20653;-73
2023/09/24 02:23:28;;;;;;;4.30;3.90;;;12.30;99.90;;;;;;5051954;28;20460;-73
2023/09/24 02:25:55;;;;;;;4.90;4.50;;;12.30;99.90;;;;;;5046719;28;20422;-73
2023/09/24 02:28:20;;;;;;;5.43;4.93;;;12.30;99.90;;;;;;5046597;28;20436;-73
2023/09/24 02:30:47;;;;;;;5.60;5.10;;;12.40;99.90;;;;;;5053078;28;20920;-73
2023/09/24 02:33:13;;;;;;;6.13;5.17;;;12.40;99.90;;;;;;5044163;28;20172;-72
2023/09/24 02:35:39;;;;;;;6.20;5.60;;;12.40;99.90;;;;;;5048950;28;20430;-72
2023/09/24 02:38:05;;;;;;;6.00;5.40;;;12.30;99.90;;;;;;5048732;28;20441;-73
2023/09/24 02:40:31;;;;;;;8.07;7.33;;;12.30;99.90;;;;;;5049038;28;20931;-72
2023/09/24 02:42:58;;;;;;;6.03;5.53;;;12.30;99.90;;;;;;5046827;28;20198;-73
2023/09/24 02:45:26;;;;;;;6.13;5.53;;;12.30;99.90;;;;;;5051217;28;20224;-74
2023/09/24 02:47:52;;;;;;;6.30;4.97;;;12.40;99.90;;;;;;5046873;28;20459;-73
2023/09/24 02:50:25;;;;;;;7.53;5.60;;;12.40;99.90;;;;;;5051599;28;20451;-73
2023/09/24 02:52:59;;;;;;;6.90;5.13;;;12.40;99.90;;;;;;5050846;28;20574;-72
2023/09/24 02:55:26;;;;;;;5.93;5.23;;;12.60;99.90;;;;;;5051028;28;20409;-73
2023/09/24 02:57:52;;;;;;;5.40;4.90;;;12.60;99.90;;;;;;5040264;28;20461;-74
2023/09/24 03:00:26;;;;;;;5.70;5.20;;;12.70;99.90;;;;;;5047838;28;20946;-74
2023/09/24 03:02:53;;;;;;;6.33;5.73;;;12.70;99.90;;;;;;5051757;28;20536;-74
2023/09/24 03:05:20;;;;;;;5.87;5.23;;;12.70;99.90;;;;;;5051671;28;20418;-73
2023/09/24 03:07:53;;;;;;;4.40;4.10;;;12.80;99.90;;;;;;5046242;28;20441;-73
2023/09/24 03:10:20;;;;;;;4.93;4.63;;;12.80;99.90;;;;;;5050182;28;20414;-71
2023/09/24 03:12:47;;;;;;;5.57;5.17;;;12.80;99.90;;;;;;5047557;28;20429;-71
2023/09/24 03:15:13;;;;;;;7.20;5.47;;;12.90;99.90;;;;;;5051837;28;20420;-72
2023/09/24 03:17:40;;;;;;;5.90;4.60;;;13.00;99.90;;;;;;5046170;28;20445;-72
2023/09/24 03:20:19;;;;;;;6.43;4.10;;;13.10;99.90;;;;;;5051644;28;20209;-73
2023/09/24 03:23:09;;;;;;;5.20;4.80;;;13.10;99.90;;;;;;5051544;28;20449;-73
2023/09/24 03:25:35;;;;;;;4.93;4.63;;;13.20;99.90;;;;;;5051575;28;20412;-73
2023/09/24 03:28:01;;;;;;;5.47;4.60;;;13.20;99.90;;;;;;5039153;28;20445;-74
2023/09/24 03:30:26;;;;;;;5.30;4.80;;;13.30;99.90;;;;;;5051013;28;20188;-73
2023/09/24 03:32:53;;;;;;;5.83;5.33;;;13.30;99.90;;;;;;5051083;28;20264;-72
2023/09/24 03:35:24;;;;;;;6.70;4.67;;;13.30;99.90;;;;;;5051360;28;20420;-73
2023/09/24 03:37:50;;;;;;;6.03;4.60;;;13.30;99.90;;;;;;5049627;28;20963;-73
2023/09/24 03:40:18;;;;;;;6.33;4.07;;;13.40;99.90;;;;;;5051023;28;20833;-73
2023/09/24 03:42:44;;;;;;;5.17;4.47;;;13.40;99.90;;;;;;5042836;28;20453;-73
2023/09/24 03:45:12;;;;;;;4.83;4.43;;;13.40;99.90;;;;;;5048444;28;20425;-73
2023/09/24 03:47:38;;;;;;;4.37;3.97;;;13.40;99.90;;;;;;5050873;28;20437;-73
2023/09/24 03:50:05;;;;;;;4.93;4.53;;;13.40;99.90;;;;;;5044221;28;20426;-74
2023/09/24 03:52:31;;;;;;;7.00;4.17;;;13.40;99.90;;;;;;5050985;28;20413;-73
2023/09/24 03:54:59;;;;;;;4.83;4.23;;;13.50;99.90;;;;;;5051115;28;20421;-73
2023/09/24 03:57:27;;;;;;;5.87;4.80;;;13.50;99.90;;;;;;5044192;28;20458;-73
2023/09/24 03:59:56;;;;;;;6.53;4.93;;;13.50;99.90;;;;;;5051509;28;20410;-72
2023/09/24 04:02:23;;;;;;;6.10;5.50;;;13.50;99.90;;;;;;5047527;28;20461;-73
2023/09/24 04:04:49;;;;;;;8.90;5.90;;;13.50;99.90;;;;;;5045116;28;20421;-72
2023/09/24 04:07:16;;;;;;;4.70;4.40;;;13.50;99.90;;;;;;5050729;28;20422;-72
2023/09/24 04:09:43;;;;;;;6.17;5.63;;;13.40;99.90;;;;;;5050794;28;20414;-73
2023/09/24 04:12:09;;;;;;;5.07;4.67;;;13.40;99.90;;;;;;5046475;28;20429;-73
2023/09/24 04:14:35;;;;;;;6.03;4.80;;;13.30;99.90;;;;;;5051450;28;20514;-73
2023/09/24 04:17:02;;;;;;;4.63;4.23;;;13.30;99.90;;;;;;5050792;28;20779;-73
2023/09/24 04:19:28;;;;;;;5.90;5.43;;;13.30;99.90;;;;;;5045412;28;20779;-73
2023/09/24 04:21:54;;;;;;;5.53;5.03;;;13.30;99.90;;;;;;5050620;28;20431;-73
2023/09/24 04:24:20;;;;;;;5.40;4.70;;;13.20;99.90;;;;;;5049243;28;20509;-73
2023/09/24 04:26:47;;;;;;;5.77;5.13;;;13.30;99.90;;;;;;5044732;28;20407;-73
2023/09/24 04:29:13;;;;;;;5.27;4.87;;;13.30;99.90;;;;;;5047139;28;20257;-73
2023/09/24 04:31:38;;;;;;;5.90;5.37;;;13.30;99.90;;;;;;5050721;28;20820;-73
2023/09/24 04:34:04;;;;;;;5.70;5.20;;;13.40;99.90;;;;;;5047781;28;20429;-73
2023/09/24 04:36:30;;;;;;;5.60;5.10;;;13.40;99.90;;;;;;5047703;28;20206;-72
2023/09/24 04:38:55;;;;;;;6.13;5.57;;;13.30;99.90;;;;;;5050143;28;20195;-74
2023/09/24 04:41:21;;;;;;;6.73;5.87;;;13.30;99.90;;;;;;5051949;28;20186;-72
2023/09/24 04:43:47;;;;;;;7.47;6.77;;;13.30;99.90;;;;;;5044901;28;20815;-72
2023/09/24 04:46:16;;;;;;;8.03;6.63;;;13.20;99.90;;;;;;5054272;28;20417;-72
2023/09/24 04:48:41;;;;;;;6.60;5.97;;;13.10;99.90;;;;;;5053933;28;20190;-73
2023/09/24 04:51:07;;;;;;;7.13;6.53;;;13.20;99.90;;;;;;5053952;28;20847;-73
2023/09/24 04:53:33;;;;;;;10.83;7.83;;;13.20;99.90;;;;;;5050527;28;20250;-74
2023/09/24 04:55:58;;;;;;;9.67;8.20;;;13.20;99.90;;;;;;5040698;28;20187;-73
2023/09/24 04:58:24;;;;;;;8.43;7.60;;;13.30;99.90;;;;;;5044018;28;20309;-73
2023/09/24 05:00:50;;;;;;;9.57;8.67;;;13.20;99.90;;;;;;5053122;28;20179;-73
2023/09/24 05:03:16;;;;;;;9.33;8.50;;;13.20;99.90;;;;;;5053868;28;20194;-73
2023/09/24 05:05:45;;;;;;;8.93;8.13;;;13.20;99.90;;;;;;5052872;28;20463;-73
2023/09/24 05:08:11;;;;;;;9.13;8.10;;;13.20;99.90;;;;;;5049378;28;20336;-75
2023/09/24 05:10:40;;;;;;;8.27;7.57;;;13.20;99.90;;;;;;5045850;28;20929;-72
2023/09/24 05:13:06;;;;;;;10.13;8.27;;;13.00;99.90;;;;;;5052264;28;20171;-73
2023/09/24 05:15:32;;;;;;;9.10;8.20;;;13.10;99.90;;;;;;5053687;28;20440;-73
2023/09/24 05:17:57;;;;;;;9.70;8.80;;;13.10;99.90;;;;;;5052701;28;20238;-73
2023/09/24 05:20:23;;;;;;;10.93;9.87;;;13.10;99.90;;;;;;5054220;28;20179;-73
2023/09/24 05:22:49;;;;;;;10.83;9.30;;;13.20;99.90;;;;;;5047489;28;20195;-73
2023/09/24 05:25:15;;;;;;;9.87;8.87;;;13.10;99.90;;;;;;5054511;28;20224;-73
2023/09/24 05:27:40;;;;;;;9.67;8.77;;;13.10;99.90;;;;;;5039612;28;20194;-72
2023/09/24 05:30:09;;;;;;;10.73;8.30;;;13.10;99.90;;;;;;5052072;28;20513;-73
2023/09/24 05:32:35;;;;;;;9.90;8.90;;;13.00;99.90;;;;;;5053072;28;20175;-73
2023/09/24 05:35:00;;;;;;;9.27;8.47;;;13.00;99.90;;;;;;5053502;28;20417;-71
2023/09/24 05:37:26;;;;;;;11.43;10.20;;;13.00;99.90;;;;;;5047919;28;20237;-73
2023/09/24 05:39:52;;;;;;;11.47;8.63;;;13.00;99.90;;;;;;5053250;28;20216;-73
2023/09/24 05:42:17;;;;;;;10.97;9.77;;;13.00;99.90;;;;;;5046867;28;20226;-72
2023/09/24 05:44:43;;;;;;;10.30;8.00;;;13.10;99.90;;;;;;5034876;28;20171;-72
2023/09/24 05:47:10;;;;;;;9.03;8.17;;;13.00;99.90;;;;;;5053084;28;20673;-73
2023/09/24 05:49:36;;;;;;;15.27;8.90;;;13.10;99.90;;;;;;5052709;28;20406;-73
2023/09/24 05:52:03;;;;;;;8.53;7.63;;;13.20;99.90;;;;;;5047959;28;20416;-72
2023/09/24 05:54:28;;;;;;;7.93;7.13;;;13.20;99.90;;;;;;5051512;28;20175;-72
2023/09/24 05:56:54;;;;;;;9.10;7.50;;;13.10;99.90;;;;;;5048564;28;21083;-72
2023/09/24 05:59:20;;;;;;;7.00;6.27;;;13.20;99.90;;;;;;5041724;28;20677;-73
2023/09/24 06:01:45;;;;;;;8.60;6.37;;;13.30;99.90;;;;;;5048517;28;20254;-73
2023/09/24 06:04:11;;;;;;;7.10;6.50;;;13.30;99.90;;;;;;5043221;28;20286;-73
2023/09/24 06:06:37;;;;;;;7.90;7.10;;;13.40;99.90;;;;;;5052489;28;20167;-73
2023/09/24 06:09:08;;;;;;;7.00;6.30;;;13.30;99.90;;;;;;5052293;28;20199;-73
2023/09/24 06:11:35;;;;;;;7.70;6.50;;;13.20;99.90;;;;;;5047415;28;20948;-72
2023/09/24 06:14:08;;;;;;;6.77;6.17;;;13.20;99.90;;;;;;5046905;28;20425;-72
2023/09/24 06:16:37;;;;;;;8.63;6.40;;;13.30;99.90;;;;;;5052475;28;20420;-72
2023/09/24 06:19:03;;;;;;;7.20;6.50;;;13.40;99.90;;;;;;5048361;28;20908;-74
2023/09/24 06:21:29;;;;;;;7.63;6.90;;;13.50;99.90;;;;;;5052295;28;20414;-73
2023/09/24 06:23:55;;;;;;;7.10;6.40;;;13.50;99.90;;;;;;5050731;28;20545;-73
2023/09/24 06:26:21;;;;;;;7.37;6.57;;;13.40;99.90;;;;;;5043632;28;20415;-74
2023/09/24 06:28:47;;;;;;;10.33;6.07;;;13.30;99.90;;;;;;5045169;28;20951;-74
2023/09/24 06:31:12;;;;;;;7.83;6.77;;;13.30;99.90;;;;;;5052174;28;20417;-73
2023/09/24 06:33:38;;;;;;;8.57;6.83;;;13.40;99.90;;;;;;5052252;28;20668;-72
2023/09/24 06:36:04;;;;;;;9.17;5.30;;;13.50;99.90;;;;;;5041986;28;20180;-73
2023/09/24 06:38:30;;;;;;;11.10;6.30;;;13.40;99.90;;;;;;5038035;28;20250;-71
2023/09/24 06:40:59;;;;;;;6.97;6.37;;;13.50;99.90;;;;;;5049232;28;20429;-71
2023/09/24 06:43:25;;;;;;;10.13;6.10;;;13.70;99.90;;;;;;5045036;28;20552;-73
2023/09/24 06:45:56;;;;;;;6.43;5.63;;;13.50;99.90;;;;;;5052399;28;20461;-73
2023/09/24 06:48:22;;;;;;;5.80;5.30;;;13.60;99.90;;;;;;5052518;28;20437;-73
2023/09/24 06:50:48;;;;;;;5.93;5.33;;;13.80;99.90;;;;;;5047767;28;20480;-73
2023/09/24 06:53:14;;;;;;;5.00;4.57;;;13.90;99.90;;;;;;5048236;28;20437;-74
2023/09/24 06:55:40;;;;;;;5.13;4.70;;;13.90;99.90;;;;;;5051909;28;20765;-72
2023/09/24 06:58:06;;;;;;;4.97;4.57;;;13.70;99.90;;;;;;5046791;28;20223;-73
2023/09/24 07:00:32;;;;;;;9.30;4.50;;;13.80;99.90;;;;;;5052428;28;20422;-72
2023/09/24 07:02:58;;;;;;;5.80;4.83;;;14.00;99.90;;;;;;5043788;28;20238;-73
2023/09/24 07:05:23;;;;;;;4.47;4.07;;;14.00;99.90;;;;;;5044608;28;20525;-73
2023/09/24 07:07:49;;;;;;;5.50;5.00;;;14.10;99.90;;;;;;5042813;28;20450;-73
2023/09/24 07:10:15;;;;;;;6.13;5.53;;;14.30;99.90;;;;;;5040962;28;20176;-72
2023/09/24 07:12:42;;;;;;;6.10;5.60;;;14.10;99.90;;;;;;5048673;28;20530;-72
2023/09/24 07:15:08;;;;;;;8.23;6.10;;;14.30;99.90;;;;;;5052087;28;20266;-74
2023/09/24 07:17:35;;;;;;;7.60;5.13;;;14.20;99.90;;;;;;5049848;28;20949;-73
2023/09/24 07:20:04;;;;;;;5.23;4.73;;;14.00;99.90;;;;;;5046549;28;20520;-71
2023/09/24 07:22:30;;;;;;;6.53;4.77;;;14.20;99.90;;;;;;5044341;28;20466;-72
2023/09/24 07:24:56;;;;;;;5.20;4.70;;;14.10;99.90;;;;;;5046766;28;20470;-72
2023/09/24 07:27:22;;;;;;;6.00;4.40;;;14.30;99.90;;;;;;5042488;28;20191;-72
2023/09/24 07:29:48;;;;;;;6.70;4.30;;;14.20;99.90;;;;;;5035414;28;20430;-72
2023/09/24 07:32:14;;;;;;;6.27;4.03;;;14.10;99.90;;;;;;5049825;28;20230;-72
2023/09/24 07:34:40;;;;;;;4.00;3.70;;;14.30;99.90;;;;;;5047539;28;20275;-72
2023/09/24 07:37:08;;;;;;;6.87;4.53;;;14.20;99.90;;;;;;5051291;28;20563;-72
2023/09/24 07:39:36;;;;;;;4.17;3.70;;;14.40;99.90;;;;;;5050234;28;20431;-73
2023/09/24 07:42:02;;;;;;;4.57;3.33;;;14.60;99.90;;;;;;5039725;28;20948;-73
2023/09/24 07:44:28;;;;;;;4.03;3.43;;;14.90;99.90;;;;;;5042019;28;20514;-72
2023/09/24 07:46:54;;;;;;;5.93;4.00;;;14.80;99.90;;;;;;5051284;28;20581;-73
2023/09/24 07:49:20;;;;;;;6.50;5.80;;;14.80;99.90;;;;;;5039273;28;20189;-73
2023/09/24 07:51:45;;;;;;;4.80;3.50;;;14.60;99.90;;;;;;5048232;28;20411;-70
2023/09/24 07:54:11;;;;;;;5.20;3.90;;;14.70;99.90;;;;;;5033564;28;20192;-74
2023/09/24 07:56:42;;;;;;;5.53;4.10;;;14.80;99.90;;;;;;5045326;28;20550;-72
2023/09/24 07:59:11;;;;;;;3.90;3.43;;;14.70;99.90;;;;;;5042188;28;20192;-70
2023/09/24 08:01:37;;;;;;;5.20;3.70;;;15.10;99.90;;;;;;5036861;28;20976;-72
2023/09/24 08:04:03;;;;;;;4.30;3.80;;;15.10;99.90;;;;;;5043455;28;20565;-73
2023/09/24 08:06:29;;;;;;;3.83;3.50;;;15.10;99.90;;;;;;5050918;28;20187;-69
2023/09/24 08:08:55;;;;;;;4.70;3.83;;;15.40;99.90;;;;;;5039946;28;20443;-72
2023/09/24 08:11:24;;;;;;;3.50;3.20;;;15.40;99.90;;;;;;5050200;28;20811;-72
2023/09/24 08:13:51;;;;;;;3.30;2.97;;;15.60;99.90;;;;;;5040053;28;20428;-72
2023/09/24 08:16:17;;;;;;;4.13;3.17;;;15.20;99.90;;;;;;5046622;28;20503;-72
2023/09/24 08:18:44;;;;;;;4.20;3.70;;;15.10;99.90;;;;;;5051741;28;21019;-70
2023/09/24 08:21:09;;;;;;;5.10;4.60;;;15.40;99.90;;;;;;5045111;28;20188;-71
2023/09/24 08:23:35;;;;;;;3.60;2.63;;;15.40;99.90;;;;;;5049524;28;20929;-75
2023/09/24 08:26:00;;;;;;;3.90;3.30;;;16.00;99.90;;;;;;5047150;28;20193;-70
2023/09/24 08:28:26;;;;;;;3.03;2.57;;;16.10;99.90;;;;;;5046604;28;20198;-74
2023/09/24 08:30:52;;;;;;;3.13;2.83;;;17.10;99.90;;;;;;5050724;28;20204;-70
2023/09/24 08:33:17;;;;;;;3.10;2.20;;;18.00;99.90;;;;;;5049354;28;20201;-69
2023/09/24 08:35:43;;;;;;;4.20;2.97;;;17.20;99.90;;;;;;5043448;28;20183;-71
2023/09/24 08:38:09;;;;;;;2.50;2.20;;;17.70;99.90;;;;;;5034635;28;20211;-70
2023/09/24 08:40:35;;;;;;;3.87;3.20;;;17.70;99.90;;;;;;5042570;28;20534;-73
2023/09/24 08:43:08;;;;;;;4.03;2.30;;;18.00;99.90;;;;;;5037624;28;20500;-71
2023/09/24 08:45:34;;;;;;;3.37;2.80;;;18.00;99.90;;;;;;5044156;28;20485;-71
2023/09/24 08:48:07;;;;;;;3.87;2.53;;;18.10;99.90;;;;;;5038759;28;20454;-77
2023/09/24 08:50:39;;;;;;;4.80;2.20;;;18.20;99.90;;;;;;5031793;28;20181;-72
2023/09/24 08:53:10;;;;;;;3.10;2.60;;;18.60;99.90;;;;;;5048506;28;20941;-76
2023/09/24 08:55:41;;;;;;;2.10;1.83;;;18.10;99.90;;;;;;5050066;28;20434;-76
2023/09/24 08:58:07;;;;;;;4.00;2.03;;;18.00;99.90;;;;;;5051110;28;20884;-74
2023/09/24 09:00:33;;;;;;;4.70;2.17;;;18.80;99.90;;;;;;5042590;28;20931;-72
2023/09/24 09:03:02;;;;;;;4.23;3.03;;;19.50;99.90;;;;;;5038003;28;20497;-75
2023/09/24 09:05:28;;;;;;;3.93;2.47;;;18.10;99.90;;;;;;5037337;28;20798;-74
2023/09/24 09:07:59;;;;;;;7.07;2.53;;;18.20;99.90;;;;;;5046489;28;20441;-72
2023/09/24 09:10:30;;;;;;;3.00;2.70;;;19.10;99.90;;;;;;5051300;28;20547;-75
2023/09/24 09:13:14;;;;;;;3.23;2.40;;;18.00;99.90;;;;;;5051360;28;20480;-74
2023/09/24 09:15:41;;;;;;;3.20;2.20;;;18.70;99.90;;;;;;5047945;28;20427;-73
2023/09/24 09:18:24;;;;;;;2.50;1.77;;;18.80;99.90;;;;;;5040893;28;20439;-75
2023/09/24 09:20:51;;;;;;;2.77;1.83;;;18.50;99.90;;;;;;5045741;28;20424;-74
2023/09/24 09:23:36;;;;;;;2.70;1.97;;;18.90;99.90;;;;;;5050067;28;20527;-75
2023/09/24 09:26:01;;;;;;;2.30;2.10;;;19.80;99.90;;;;;;5046116;28;20455;-75
2023/09/24 09:28:31;;;;;;;3.20;3.00;;;19.30;99.90;;;;;;5050892;28;20472;-74
2023/09/24 09:31:02;;;;;;;1.97;1.87;;;18.70;99.90;;;;;;5051477;28;20247;-76
2023/09/24 09:33:29;;;;;;;2.70;2.03;;;19.20;99.90;;;;;;5028627;28;20426;-74
2023/09/24 09:35:57;;;;;;;3.33;1.70;;;19.50;99.90;;;;;;5041516;28;20566;-74
2023/09/24 09:38:23;;;;;;;4.40;3.00;;;19.50;99.90;;;;;;5034157;28;20815;-74
2023/09/24 09:40:59;;;;;;;2.00;1.70;;;19.80;99.90;;;;;;5054766;28;20479;-71
2023/09/24 09:43:29;;;;;;;2.90;1.80;;;19.80;99.90;;;;;;5052299;23;20480;-71
2023/09/24 09:45:56;;;;;;;2.47;1.67;;;18.90;99.90;;;;;;5032798;28;20757;-70
2023/09/24 09:48:32;;;;;;;5.57;2.20;;;19.70;99.90;;;;;;5032681;28;20413;-70
2023/09/24 09:51:05;;;;;;;4.90;1.70;;;19.80;99.90;;;;;;5032309;28;20617;-71
2023/09/24 09:53:34;;;;;;;3.47;2.10;;;19.10;99.90;;;;;;5015179;28;20503;-70
2023/09/24 09:56:01;;;;;;;2.37;1.73;;;19.80;99.90;;;;;;5012819;28;20417;-70
2023/09/24 09:58:30;;;;;;;2.90;2.40;;;19.20;99.90;;;;;;5012307;28;20413;-70
2023/09/24 10:00:55;;;;;;;3.50;2.13;;;19.10;99.90;;;;;;5016761;28;21191;-71
2023/09/24 10:03:23;;;;;;;2.20;1.90;;;18.90;99.90;;;;;;5016287;28;20554;-71
2023/09/24 10:05:49;;;;;;;4.27;2.37;;;18.30;99.90;;;;;;5012515;28;20257;-70
2023/09/24 10:08:37;;;;;;;3.10;2.30;;;18.20;99.90;;;;;;5028265;28;20519;-70
2023/09/24 10:11:06;;;;;;;2.20;2.00;;;18.10;99.90;;;;;;5018802;28;20921;-71
2023/09/24 10:13:48;;;;;;;2.00;1.80;;;18.00;99.90;;;;;;5012376;28;20544;-70
2023/09/24 10:16:32;;;;;;;2.77;1.73;;;18.30;99.90;;;;;;5012348;28;20471;-70
2023/09/24 10:19:00;;;;;;;2.13;1.77;;;18.60;99.90;;;;;;5024776;28;20521;-70
2023/09/24 10:21:43;;;;;;;3.37;2.47;;;18.60;99.90;;;;;;5031999;28;20470;-70
2023/09/24 10:24:14;;;;;;;5.20;2.57;;;18.50;99.90;;;;;;5026105;28;20467;-71
2023/09/24 10:26:54;;;;;;;3.53;2.27;;;18.40;99.90;;;;;;5012321;28;20558;-70
2023/09/24 10:29:40;;;;;;;4.13;2.27;;;18.30;99.90;;;;;;5012550;28;20978;-71
2023/09/24 10:32:09;;;;;;;2.73;2.13;;;18.30;99.90;;;;;;5025714;28;20467;-71
2023/09/24 10:34:54;;;;;;;4.20;2.33;;;18.50;99.90;;;;;;5032718;28;20976;-72
2023/09/24 10:37:21;;;;;;;2.57;2.37;;;18.70;99.90;;;;;;5025015;28;20505;-71
2023/09/24 10:40:05;;;;;;;3.63;2.00;;;18.70;99.90;;;;;;5012503;28;20953;-72
2023/09/24 10:42:32;;;;;;;4.40;2.30;;;19.00;99.90;;;;;;5013900;28;20826;-71
2023/09/24 10:45:06;;;;;;;2.13;1.93;;;18.60;99.90;;;;;;5010602;28;20834;-71
2023/09/24 10:47:37;;;;;;;2.97;1.93;;;18.40;99.90;;;;;;5020581;28;20414;-72
2023/09/24 10:50:04;;;;;;;4.07;1.83;;;18.40;99.90;;;;;;5018444;28;20408;-71
2023/09/24 10:52:52;;;;;;;3.93;1.70;;;18.50;99.90;;;;;;5011325;28;20501;-71
2023/09/24 10:55:36;;;;;;;2.13;1.83;;;18.50;99.90;;;;;;5011728;28;20411;-70
2023/09/24 10:58:15;;;;;;;3.77;2.33;;;18.20;99.90;;;;;;5024719;28;20769;-73
2023/09/24 11:00:50;;;;;;;2.83;1.80;;;18.30;99.90;;;;;;5031669;28;20435;-71
2023/09/24 11:03:16;;;;;;;2.47;1.63;;;18.80;99.90;;;;;;5031002;28;20455;-72
2023/09/24 11:05:43;;;;;;;4.17;1.83;;;18.70;99.90;;;;;;5031062;28;20428;-71
2023/09/24 11:08:10;;;;;;;10.10;5.33;;;18.50;99.90;;;;;;5031204;28;20164;-70
2023/09/24 11:10:37;;;;;;;2.77;2.03;;;18.90;99.90;;;;;;5030345;28;20421;-71
2023/09/24 11:13:04;;;;;;;3.53;3.13;;;19.20;99.90;;;;;;5017398;28;20435;-71
2023/09/24 11:15:35;;;;;;;1.67;1.57;;;18.90;99.90;;;;;;5012072;28;20530;-72
2023/09/24 11:18:02;;;;;;;3.80;2.00;;;19.10;99.90;;;;;;5012463;28;20417;-70
2023/09/24 11:20:31;;;;;;;2.73;1.97;;;19.10;99.90;;;;;;5013066;28;20579;-71
2023/09/24 11:22:56;;;;;;;2.70;1.63;;;19.00;99.90;;;;;;5025140;28;20459;-71
2023/09/24 11:25:22;;;;;;;3.73;1.73;;;19.00;99.90;;;;;;5034119;28;20420;-72
2023/09/24 11:27:50;;;;;;;3.50;2.63;;;18.80;99.90;;;;;;5014955;28;20338;-71
2023/09/24 11:30:17;;;;;;;4.13;1.60;;;18.40;99.90;;;;;;5023798;28;20846;-70
2023/09/24 11:32:44;;;;;;;2.50;1.50;;;18.30;99.90;;;;;;5012574;28;20445;-71
2023/09/24 11:35:20;;;;;;;3.53;1.93;;;18.10;99.90;;;;;;5011154;28;20482;-70
2023/09/24 11:37:54;;;;;;;2.90;1.50;;;18.00;99.90;;;;;;5021388;28;20414;-70
2023/09/24 11:40:27;;;;;;;4.00;1.77;;;17.90;99.90;;;;;;5016906;28;20495;-71
2023/09/24 11:43:02;;;;;;;1.73;1.63;;;18.00;99.90;;;;;;5012176;28;20569;-71
2023/09/24 11:45:46;;;;;;;3.23;1.70;;;18.00;99.90;;;;;;5011589;28;20416;-71
2023/09/24 11:48:20;;;;;;;3.60;1.90;;;18.20;99.90;;;;;;5024970;28;20740;-70
2023/09/24 11:51:02;;;;;;;2.80;1.60;;;18.40;99.90;;;;;;5034556;28;20571;-70
2023/09/24 11:53:28;;;;;;;3.07;2.13;;;18.30;99.90;;;;;;5034339;28;20472;-71
2023/09/24 11:55:58;;;;;;;2.00;1.53;;;18.20;99.90;;;;;;5034588;28;20415;-71
2023/09/24 11:58:28;;;;;;;2.03;1.83;;;18.40;99.90;;;;;;5034501;28;20772;-70
2023/09/24 12:00:55;;;;;;;2.40;1.47;;;18.50;99.90;;;;;;5034595;28;20532;-74
2023/09/24 12:03:21;;;;;;;3.83;1.47;;;18.60;99.90;;;;;;5033453;28;20574;-71
2023/09/24 12:05:47;;;;;;;3.13;1.70;;;18.80;99.90;;;;;;5035013;28;20908;-73
2023/09/24 12:08:14;;;;;;;3.10;1.63;;;18.80;99.90;;;;;;5035609;28;20403;-70
2023/09/24 12:10:41;;;;;;;1.50;1.40;;;18.80;99.90;;;;;;5034520;28;20474;-71
2023/09/24 12:13:10;;;;;;;4.77;1.57;;;19.10;99.90;;;;;;5034032;28;20436;-70
2023/09/24 12:15:36;;;;;;;3.83;1.80;;;19.10;99.90;;;;;;5034136;28;20427;-70
2023/09/24 12:18:04;;;;;;;1.97;1.60;;;19.00;99.90;;;;;;5034058;28;20458;-70
2023/09/24 12:20:34;;;;;;;6.50;2.70;;;19.10;99.90;;;;;;5034324;28;20494;-71
2023/09/24 12:23:01;;;;;;;4.70;3.30;;;19.10;99.90;;;;;;5030769;28;20807;-71
2023/09/24 12:25:28;;;;;;;2.70;1.70;;;19.10;99.90;;;;;;5014512;28;20417;-70
2023/09/24 12:27:54;;;;;;;1.50;1.40;;;19.40;99.90;;;;;;5012553;28;20601;-70
2023/09/24 12:30:20;;;;;;;2.73;2.40;;;19.60;99.90;;;;;;5014090;28;20510;-71
2023/09/24 12:32:46;;;;;;;5.83;3.03;;;19.80;99.90;;;;;;5022928;28;21022;-71
2023/09/24 12:35:11;;;;;;;8.50;2.03;;;20.10;99.90;;;;;;5020513;28;20425;-71
2023/09/24 12:37:39;;;;;;;3.73;2.27;;;19.90;99.90;;;;;;5014233;28;20194;-73
2023/09/24 12:40:08;;;;;;;6.13;3.87;;;19.80;99.90;;;;;;5012539;28;20176;-70
2023/09/24 12:42:36;;;;;;;2.57;1.90;;;19.90;99.90;;;;;;5016029;28;20515;-74
2023/09/24 12:45:03;;;;;;;2.80;2.03;;;19.70;99.90;;;;;;5021925;28;20429;-71
2023/09/24 12:47:32;;;;;;;2.70;1.63;;;20.00;99.90;;;;;;5019399;28;20438;-70
2023/09/24 12:49:59;;;;;;;4.47;1.70;;;20.20;99.90;;;;;;5030613;28;20811;-71